createdAt,value
2022-09-23T09:03:38.193Z,9.77
2022-09-23T09:10:27.572Z,8.75
2022-09-23T09:13:30.154Z,9.65
2022-09-23T09:17:00.336Z,9.18
2022-09-23T09:19:56.022Z,9.07
2022-09-23T09:22:58.097Z,6.70
2022-09-23T09:25:55.333Z,11.82
2022-09-23T09:28:36.616Z,10.50
2022-09-23T09:31:31.566Z,8.38
2022-09-23T09:34:43.947Z,6.40
2022-09-23T09:37:46.980Z,8.27
2022-09-23T09:40:20.186Z,5.35
2022-09-23T09:42:50.245Z,14.80
2022-09-23T09:45:57.717Z,8.05
2022-09-23T09:48:39.398Z,6.72
2022-09-23T09:51:28.171Z,10.07
2022-09-23T09:54:22.160Z,7.75
2022-09-23T09:56:52.942Z,7.35
2022-09-23T09:59:29.603Z,11.60
2022-09-23T10:02:24.627Z,6.18
2022-09-23T10:05:00.700Z,4.10
2022-09-23T10:07:35.182Z,13.20
2022-09-23T10:10:32.360Z,4.43
2022-09-23T10:13:16.195Z,3.95
2022-09-23T10:15:47.041Z,8.10
2022-09-23T10:19:10.305Z,6.50
2022-09-23T10:22:29.318Z,4.95
2022-09-23T10:25:53.183Z,2.85
2022-09-23T10:29:43.446Z,3.13
2022-09-23T10:32:48.449Z,4.50
2022-09-23T10:36:40.121Z,7.05
2022-09-23T10:43:49.042Z,5.38
2022-09-23T10:47:28.779Z,5.65
2022-09-23T10:50:40.636Z,3.97
2022-09-23T10:53:58.752Z,4.70
2022-09-23T10:56:44.789Z,4.80
2022-09-23T11:00:11.077Z,3.80
2022-09-23T11:08:53.757Z,4.30
2022-09-23T11:11:51.177Z,6.28
2022-09-23T11:15:44.335Z,3.55
2022-09-23T11:28:33.233Z,4.28
2022-09-23T11:36:49.181Z,3.13
2022-09-23T11:41:02.934Z,3.70
2022-09-23T12:12:30.288Z,4.25
2022-09-23T12:16:12.470Z,3.33
2022-09-23T12:24:24.897Z,2.97
2022-09-23T12:31:58.598Z,3.40
2022-09-23T12:39:13.299Z,2.33
2022-09-23T12:42:35.713Z,3.25
2022-09-23T12:45:40.415Z,2.47
2022-09-23T12:53:00.614Z,5.60
2022-09-23T13:33:46.816Z,4.20
2022-09-23T13:40:31.017Z,2.95
2022-09-23T13:44:20.817Z,2.08
2022-09-23T14:12:53.958Z,3.83
2022-09-23T14:15:33.192Z,6.10
2022-09-23T14:18:37.714Z,5.22
2022-09-23T14:21:38.005Z,4.35
2022-09-23T14:24:23.117Z,5.93
2022-09-23T14:27:11.876Z,3.30
2022-09-23T14:30:06.815Z,3.42
2022-09-23T14:33:10.474Z,3.47
2022-09-23T14:36:35.995Z,3.10
2022-09-23T14:39:16.202Z,3.00
2022-09-23T14:42:42.588Z,3.33
2022-09-23T14:46:20.110Z,3.35
2022-09-23T14:50:22.339Z,2.47
2022-09-23T14:59:38.982Z,4.05
2022-09-23T15:06:08.740Z,4.30
2022-09-23T15:15:52.010Z,2.22
2022-09-23T15:22:02.083Z,3.13
2022-09-23T15:29:47.875Z,3.33
2022-09-23T15:33:18.261Z,2.40
2022-09-23T15:38:07.918Z,2.47
2022-09-23T15:47:01.164Z,3.08
2022-09-23T15:49:39.088Z,4.68
2022-09-23T15:52:09.644Z,4.32
2022-09-23T15:54:37.805Z,5.45
2022-09-23T15:57:04.933Z,5.38
2022-09-23T15:59:32.472Z,9.23
2022-09-23T16:02:06.777Z,5.00
2022-09-23T16:04:34.034Z,8.60
2022-09-23T16:07:01.879Z,6.95
2022-09-23T16:09:31.868Z,6.53
2022-09-23T16:12:01.821Z,5.50
2022-09-23T16:14:28.846Z,6.35
2022-09-23T16:16:55.897Z,11.65
2022-09-23T16:19:22.967Z,6.72
2022-09-23T16:21:50.154Z,8.60
2022-09-23T16:24:18.917Z,8.00
2022-09-23T16:26:48.618Z,9.15
2022-09-23T16:29:15.835Z,7.90
2022-09-23T16:31:43.025Z,9.77
2022-09-23T16:34:10.074Z,8.23
2022-09-23T16:36:43.054Z,8.07
2022-09-23T16:39:13.348Z,10.00
2022-09-23T16:41:42.818Z,10.45
2022-09-23T16:44:12.319Z,11.50
2022-09-23T16:46:42.838Z,10.65
2022-09-23T16:49:13.748Z,13.82
2022-09-23T16:51:41.133Z,7.10
2022-09-23T16:54:11.878Z,11.30
2022-09-23T16:56:44.378Z,10.52
2022-09-23T16:59:16.244Z,11.75
2022-09-23T17:02:02.961Z,10.75
2022-09-23T17:04:30.072Z,13.90
2022-09-23T17:06:59.176Z,12.85
2022-09-23T17:09:30.202Z,11.18
2022-09-23T17:12:35.150Z,13.88
2022-09-23T17:15:07.578Z,8.90
2022-09-23T17:17:37.512Z,11.00
2022-09-23T17:20:06.811Z,11.30
2022-09-23T17:22:34.031Z,14.40
2022-09-23T17:33:10.794Z,11.18
2022-09-23T17:40:40.891Z,9.77
2022-09-23T17:47:06.579Z,13.70
2022-09-23T17:50:06.615Z,14.98
2022-09-23T17:52:33.683Z,12.15
2022-09-23T17:55:00.696Z,14.05
2022-09-23T17:57:27.671Z,22.33
2022-09-23T17:59:56.110Z,22.50
2022-09-23T18:02:23.099Z,18.17
2022-09-23T18:04:50.495Z,26.63
2022-09-23T18:07:17.579Z,19.08
2022-09-23T18:09:44.599Z,20.98
2022-09-23T18:12:47.847Z,28.75
2022-09-23T18:15:20.521Z,19.90
2022-09-23T18:24:31.306Z,16.50
2022-09-23T18:30:19.130Z,11.30
2022-09-23T18:32:46.438Z,11.80
2022-09-23T18:35:13.697Z,12.18
2022-09-23T18:37:41.056Z,13.65
2022-09-23T18:40:14.439Z,13.38
2022-09-23T18:42:41.717Z,23.13
2022-09-23T18:45:11.715Z,21.65
2022-09-23T18:47:57.713Z,22.00
2022-09-23T18:50:40.354Z,18.73
2022-09-23T18:53:08.216Z,18.48
2022-09-23T18:55:36.619Z,17.23
2022-09-23T18:58:07.589Z,17.02
2022-09-23T19:00:35.038Z,21.45
2022-09-23T19:03:02.294Z,17.48
2022-09-23T19:05:29.793Z,16.65
2022-09-23T19:07:57.282Z,19.20
2022-09-23T19:10:24.389Z,20.25
2022-09-23T19:12:51.436Z,19.42
2022-09-23T19:15:21.186Z,19.55
2022-09-23T19:17:48.330Z,16.33
2022-09-23T19:20:15.353Z,15.65
2022-09-23T19:22:47.331Z,18.95
2022-09-23T19:25:16.624Z,24.00
2022-09-23T19:28:02.668Z,22.90
2022-09-23T19:30:35.364Z,26.30
2022-09-23T19:33:18.908Z,25.33
2022-09-23T19:35:58.666Z,25.63
2022-09-23T19:38:39.351Z,25.80
2022-09-23T19:44:11.894Z,28.00
2022-09-23T19:46:55.954Z,26.52
2022-09-23T19:49:42.070Z,29.30
2022-09-23T19:52:20.434Z,23.35
2022-09-23T19:54:48.678Z,23.38
2022-09-23T19:57:16.453Z,20.92
2022-09-23T19:59:45.254Z,23.10
2022-09-23T20:02:13.861Z,20.70
2022-09-23T20:04:44.162Z,23.67
2022-09-23T20:07:11.342Z,21.83
2022-09-23T20:09:41.673Z,22.75
2022-09-23T20:12:17.652Z,69.45
2022-09-23T20:15:21.093Z,28.40
2022-09-23T20:18:22.727Z,22.05
2022-09-23T20:20:55.918Z,20.08
2022-09-23T20:23:22.967Z,18.45
2022-09-23T20:26:24.542Z,19.40
2022-09-23T20:29:13.491Z,17.83
2022-09-23T20:31:59.295Z,19.17
2022-09-23T20:34:41.464Z,16.58
2022-09-23T20:37:29.055Z,24.23
2022-09-23T20:39:56.049Z,19.17
2022-09-23T20:42:23.108Z,15.77
2022-09-23T20:44:50.369Z,12.88
2022-09-23T20:47:18.666Z,14.27
2022-09-23T20:50:12.321Z,18.27
2022-09-23T20:52:40.499Z,16.58
2022-09-23T20:55:11.139Z,13.88
2022-09-23T20:58:16.914Z,16.73
2022-09-23T21:00:51.647Z,16.05
2022-09-23T21:03:26.197Z,12.70
2022-09-23T21:06:05.994Z,15.82
2022-09-23T21:08:45.951Z,15.45
2022-09-23T21:11:41.937Z,13.68
2022-09-23T21:14:09.694Z,12.45
2022-09-23T21:16:39.906Z,16.95
2022-09-23T21:19:10.953Z,20.88
2022-09-23T21:21:38.229Z,11.88
2022-09-23T21:24:38.784Z,14.25
2022-09-23T21:26:53.023Z,12.88
2022-09-23T21:29:20.143Z,20.67
2022-09-23T21:31:49.647Z,12.05
2022-09-23T21:34:17.040Z,13.10
2022-09-23T21:36:44.320Z,10.93
2022-09-23T21:39:12.925Z,12.02
2022-09-23T21:41:43.114Z,12.70
2022-09-23T21:44:12.893Z,11.55
2022-09-23T21:47:07.011Z,10.93
2022-09-23T21:49:50.803Z,11.77
2022-09-23T21:52:18.463Z,12.07
2022-09-23T21:54:46.552Z,11.00
2022-09-23T21:57:13.912Z,10.65
2022-09-23T21:59:41.009Z,12.43
2022-09-23T22:02:08.495Z,16.63
2022-09-23T22:04:35.574Z,10.88
2022-09-23T22:07:02.624Z,15.07
2022-09-23T22:23:37.933Z,14.05
2022-09-23T22:27:00.146Z,17.98
2022-09-23T22:30:30.993Z,11.50
2022-09-23T22:33:18.250Z,13.80
2022-09-23T22:39:45.452Z,10.70
2022-09-23T22:42:39.633Z,12.85
2022-09-23T22:45:09.135Z,7.85
2022-09-23T22:47:39.884Z,11.05
2022-09-23T22:50:09.231Z,12.60
2022-09-23T22:52:39.874Z,10.90
2022-09-23T22:55:11.148Z,12.43
2022-09-23T22:57:38.841Z,10.40
2022-09-23T23:00:08.064Z,11.68
2022-09-23T23:02:44.196Z,12.20
2022-09-23T23:05:14.648Z,10.25
2022-09-23T23:07:41.871Z,10.75
2022-09-23T23:10:10.761Z,13.48
2022-09-23T23:12:42.616Z,11.98
2022-09-23T23:15:16.717Z,11.75
2022-09-23T23:17:44.018Z,8.90
2022-09-23T23:20:26.069Z,13.32
2022-09-23T23:22:53.122Z,13.98
2022-09-23T23:25:20.151Z,10.60
2022-09-23T23:27:47.562Z,8.38
2022-09-23T23:30:14.810Z,13.88
2022-09-23T23:32:42.142Z,12.32
2022-09-23T23:35:09.560Z,10.32
2022-09-23T23:37:36.658Z,10.45
2022-09-23T23:40:07.583Z,14.02
2022-09-23T23:42:34.784Z,12.43
2022-09-23T23:45:01.863Z,11.55
2022-09-23T23:47:29.183Z,9.98
2022-09-23T23:49:56.606Z,12.45
2022-09-23T23:52:24.110Z,11.85
2022-09-23T23:54:51.645Z,12.85
2022-09-23T23:57:18.740Z,11.75
2022-09-23T23:59:47.148Z,13.80
